createdAt,value
2018-08-09T00:00:08.567Z,18.55
2018-08-09T00:01:09.130Z,18.53
2018-08-09T00:02:09.692Z,18.69
2018-08-09T00:03:10.256Z,18.66
2018-08-09T00:04:10.818Z,18.62
2018-08-09T00:05:11.383Z,18.62
2018-08-09T00:06:11.966Z,18.69
2018-08-09T00:07:12.550Z,18.71
2018-08-09T00:08:13.132Z,18.71
2018-08-09T00:09:13.717Z,18.65
2018-08-09T00:10:14.281Z,18.71
2018-08-09T00:11:14.841Z,18.68
2018-08-09T00:12:15.406Z,18.63
2018-08-09T00:13:15.970Z,18.62
2018-08-09T00:14:16.530Z,18.62
2018-08-09T00:15:17.093Z,18.66
2018-08-09T00:16:17.656Z,18.50
2018-08-09T00:17:18.239Z,18.53
2018-08-09T00:18:18.801Z,18.56
2018-08-09T00:19:19.365Z,18.58
2018-08-09T00:20:19.929Z,18.58
2018-08-09T00:21:20.514Z,18.50
2018-08-09T00:22:21.075Z,18.55
2018-08-09T00:23:21.659Z,18.48
2018-08-09T00:24:22.242Z,18.50
2018-08-09T00:25:22.806Z,18.50
2018-08-09T00:26:23.372Z,18.55
2018-08-09T00:27:23.933Z,18.47
2018-08-09T00:28:24.496Z,18.47
2018-08-09T00:29:25.083Z,18.41
2018-08-09T00:30:25.641Z,18.40
2018-08-09T00:31:26.203Z,18.47
2018-08-09T00:32:26.768Z,18.41
2018-08-09T00:33:27.353Z,18.38
2018-08-09T00:34:27.935Z,18.38
2018-08-09T00:35:28.498Z,18.38
2018-08-09T00:36:29.059Z,18.34
2018-08-09T00:37:29.623Z,18.27
2018-08-09T00:38:30.188Z,18.29
2018-08-09T00:39:30.750Z,18.34
2018-08-09T00:40:31.336Z,18.20
2018-08-09T00:41:31.919Z,18.19
2018-08-09T00:42:32.484Z,18.19
2018-08-09T00:43:33.043Z,18.18
2018-08-09T00:44:33.606Z,18.18
2018-08-09T00:45:34.171Z,18.11
2018-08-09T00:46:34.835Z,18.14
2018-08-09T00:47:35.396Z,18.18
2018-08-09T00:48:35.961Z,18.16
2018-08-09T00:49:36.542Z,18.16
2018-08-09T00:50:37.124Z,18.19
2018-08-09T00:51:37.685Z,18.14
2018-08-09T00:52:38.250Z,18.20
2018-08-09T00:53:38.811Z,18.12
2018-08-09T00:54:39.374Z,18.20
2018-08-09T00:55:39.957Z,18.16
2018-08-09T00:56:40.519Z,18.20
2018-08-09T00:57:41.082Z,18.16
2018-08-09T00:58:41.644Z,18.18
2018-08-09T00:59:42.208Z,18.20
2018-08-09T01:00:42.770Z,18.12
2018-08-09T01:01:43.333Z,18.10
2018-08-09T01:02:43.896Z,17.95
2018-08-09T01:03:44.463Z,17.98
2018-08-09T01:04:45.027Z,17.90
2018-08-09T01:05:45.589Z,17.95
2018-08-09T01:06:46.152Z,18.00
2018-08-09T01:07:46.713Z,17.98
2018-08-09T01:08:47.276Z,17.90
2018-08-09T01:09:47.841Z,17.97
2018-08-09T01:10:48.403Z,17.87
2018-08-09T01:11:48.965Z,17.82
2018-08-09T01:12:49.534Z,17.72
2018-08-09T01:13:50.097Z,17.86
2018-08-09T01:14:50.676Z,17.82
2018-08-09T01:15:51.260Z,17.72
2018-08-09T01:16:51.854Z,17.82
2018-08-09T01:17:52.405Z,17.72
2018-08-09T01:18:52.966Z,17.60
2018-08-09T01:19:53.530Z,17.56
2018-08-09T01:20:54.094Z,17.65
2018-08-09T01:21:54.674Z,17.56
2018-08-09T01:22:55.238Z,17.59
2018-08-09T01:23:55.800Z,17.56
2018-08-09T01:24:56.362Z,17.60
2018-08-09T01:25:56.923Z,17.55
2018-08-09T01:26:57.486Z,17.55
2018-08-09T01:27:58.048Z,17.55
2018-08-09T01:28:58.633Z,17.45
2018-08-09T01:29:59.195Z,17.56
2018-08-09T01:30:59.757Z,17.42
2018-08-09T01:32:00.319Z,17.41
2018-08-09T01:33:00.880Z,17.44
2018-08-09T01:34:01.444Z,17.41
2018-08-09T01:35:02.028Z,17.29
2018-08-09T01:36:02.614Z,17.30
2018-08-09T01:37:03.177Z,17.30
2018-08-09T01:38:03.741Z,17.21
2018-08-09T01:39:04.324Z,17.29
2018-08-09T01:40:04.886Z,17.18
2018-08-09T01:41:05.460Z,17.34
2018-08-09T01:42:06.010Z,17.33
2018-08-09T01:43:06.576Z,17.30
2018-08-09T01:44:07.136Z,17.34
2018-08-09T01:45:07.697Z,17.36
2018-08-09T01:46:08.260Z,17.33
2018-08-09T01:47:08.821Z,17.24
2018-08-09T01:48:09.384Z,17.19
2018-08-09T01:49:09.967Z,17.33
2018-08-09T01:50:10.527Z,17.30
2018-08-09T01:51:11.089Z,17.27
2018-08-09T01:52:11.652Z,17.19
2018-08-09T01:53:12.233Z,17.21
2018-08-09T01:54:12.795Z,17.26
2018-08-09T01:55:13.358Z,17.30
2018-08-09T01:56:13.923Z,17.29
2018-08-09T01:57:14.481Z,17.36
2018-08-09T01:58:15.093Z,17.31
2018-08-09T01:59:15.679Z,17.39
2018-08-09T02:00:16.241Z,17.39
2018-08-09T02:01:16.803Z,17.42
2018-08-09T02:02:17.372Z,17.37
2018-08-09T02:03:17.936Z,17.46
2018-08-09T02:04:18.500Z,17.45
2018-08-09T02:05:19.087Z,17.54
2018-08-09T02:06:19.655Z,17.51
2018-08-09T02:07:20.233Z,17.56
2018-08-09T02:08:20.798Z,17.49
2018-08-09T02:09:21.358Z,17.45
2018-08-09T02:10:21.920Z,17.51
2018-08-09T02:11:22.504Z,17.46
2018-08-09T02:12:23.068Z,17.48
2018-08-09T02:13:23.651Z,17.63
2018-08-09T02:14:24.217Z,17.63
2018-08-09T02:15:24.775Z,17.63
2018-08-09T02:16:25.338Z,17.56
2018-08-09T02:17:25.902Z,17.63
2018-08-09T02:18:26.463Z,17.71
2018-08-09T02:19:27.025Z,17.63
2018-08-09T02:20:27.587Z,17.64
2018-08-09T02:21:28.149Z,17.75
2018-08-09T02:22:28.710Z,17.59
2018-08-09T02:23:29.271Z,17.63
2018-08-09T02:24:29.858Z,17.63
2018-08-09T02:25:30.420Z,17.64
2018-08-09T02:26:31.009Z,17.59
2018-08-09T02:27:31.567Z,17.60
2018-08-09T02:28:32.129Z,17.63
2018-08-09T02:29:32.690Z,17.60
2018-08-09T02:30:33.260Z,17.60
2018-08-09T02:31:33.838Z,17.60
2018-08-09T02:32:34.403Z,17.56
2018-08-09T02:33:34.985Z,17.70
2018-08-09T02:34:35.548Z,17.59
2018-08-09T02:35:36.113Z,17.65
2018-08-09T02:36:36.700Z,17.59
2018-08-09T02:37:37.257Z,17.56
2018-08-09T02:38:37.819Z,17.70
2018-08-09T02:39:38.380Z,17.67
2018-08-09T02:40:38.941Z,17.60
2018-08-09T02:41:39.505Z,17.70
2018-08-09T02:42:40.068Z,17.71
2018-08-09T02:43:40.651Z,17.65
2018-08-09T02:44:41.215Z,17.70
2018-08-09T02:45:41.782Z,17.59
2018-08-09T02:46:42.411Z,17.65
2018-08-09T02:47:42.938Z,17.55
2018-08-09T02:48:43.501Z,17.51
2018-08-09T02:49:44.064Z,17.59
2018-08-09T02:50:44.625Z,17.48
2018-08-09T02:51:45.186Z,17.64
2018-08-09T02:52:45.754Z,17.51
2018-08-09T02:53:46.319Z,17.56
2018-08-09T02:54:46.876Z,17.54
2018-08-09T02:55:47.458Z,17.49
2018-08-09T02:56:48.020Z,17.51
2018-08-09T02:57:48.583Z,17.48
2018-08-09T02:58:49.144Z,17.51
2018-08-09T02:59:49.709Z,17.36
2018-08-09T03:00:50.294Z,17.48
2018-08-09T03:01:50.877Z,17.48
2018-08-09T03:02:51.459Z,17.48
2018-08-09T03:03:52.045Z,17.59
2018-08-09T03:04:52.604Z,17.55
2018-08-09T03:05:53.184Z,17.60
2018-08-09T03:06:53.746Z,17.51
2018-08-09T03:07:54.306Z,17.51
2018-08-09T03:08:54.874Z,17.64
2018-08-09T03:09:55.433Z,17.55
2018-08-09T03:10:55.995Z,17.52
2018-08-09T03:11:56.560Z,17.48
2018-08-09T03:12:57.119Z,17.56
2018-08-09T03:13:57.703Z,17.51
2018-08-09T03:14:58.265Z,17.55
2018-08-09T03:15:58.826Z,17.44
2018-08-09T03:16:59.389Z,17.37
2018-08-09T03:17:59.951Z,17.48
2018-08-09T03:19:00.512Z,17.46
2018-08-09T03:20:01.075Z,17.46
2018-08-09T03:21:01.643Z,17.48
2018-08-09T03:22:02.204Z,17.60
2018-08-09T03:23:02.782Z,17.49
2018-08-09T03:24:03.346Z,17.49
2018-08-09T03:25:03.913Z,17.49
2018-08-09T03:26:04.470Z,17.60
2018-08-09T03:27:05.057Z,17.59
2018-08-09T03:28:05.616Z,17.55
2018-08-09T03:29:06.184Z,17.56
2018-08-09T03:30:06.741Z,17.60
2018-08-09T03:31:07.304Z,17.64
2018-08-09T03:32:07.867Z,17.54
2018-08-09T03:33:08.430Z,17.59
2018-08-09T03:34:08.991Z,17.70
2018-08-09T03:35:09.555Z,17.67
2018-08-09T03:36:10.115Z,17.65
2018-08-09T03:37:10.676Z,17.71
2018-08-09T03:38:11.239Z,17.77
2018-08-09T03:39:11.800Z,17.64
2018-08-09T03:40:12.385Z,17.56
2018-08-09T03:41:12.948Z,17.52
2018-08-09T03:42:13.532Z,17.60
2018-08-09T03:43:14.093Z,17.55
2018-08-09T03:44:14.656Z,17.55
2018-08-09T03:45:15.219Z,17.55
2018-08-09T03:46:15.780Z,17.60
2018-08-09T03:47:16.342Z,17.64
2018-08-09T03:48:16.906Z,17.51
2018-08-09T03:49:17.533Z,17.49
2018-08-09T03:50:18.076Z,17.44
2018-08-09T03:51:18.639Z,17.42
2018-08-09T03:52:19.223Z,17.45
2018-08-09T03:53:19.786Z,17.42
2018-08-09T03:54:20.348Z,17.41
2018-08-09T03:55:20.912Z,17.37
2018-08-09T03:56:21.477Z,17.37
2018-08-09T03:57:22.041Z,17.39
2018-08-09T03:58:22.643Z,17.42
2018-08-09T03:59:23.165Z,17.42
2018-08-09T04:00:23.729Z,17.49
2018-08-09T04:01:24.294Z,17.41
2018-08-09T04:02:24.858Z,17.48
2018-08-09T04:03:25.420Z,17.49
2018-08-09T04:04:25.984Z,17.42
2018-08-09T04:05:26.547Z,17.48
2018-08-09T04:06:27.132Z,17.46
2018-08-09T04:07:27.696Z,17.48
2018-08-09T04:08:28.262Z,17.52
2018-08-09T04:09:28.827Z,17.48
2018-08-09T04:10:29.390Z,17.46
2018-08-09T04:11:29.954Z,17.56
2018-08-09T04:12:30.544Z,17.52
2018-08-09T04:13:31.106Z,17.51
2018-08-09T04:14:31.671Z,17.59
2018-08-09T04:15:32.259Z,17.63
2018-08-09T04:16:32.824Z,17.55
2018-08-09T04:17:33.392Z,17.60
2018-08-09T04:18:33.956Z,17.70
2018-08-09T04:19:34.519Z,17.74
2018-08-09T04:20:35.084Z,17.83
2018-08-09T04:21:35.650Z,17.85
2018-08-09T04:22:36.216Z,17.87
2018-08-09T04:23:36.782Z,17.98
2018-08-09T04:24:37.377Z,18.00
2018-08-09T04:25:37.912Z,18.10
2018-08-09T04:26:38.562Z,18.16
2018-08-09T04:27:39.058Z,18.20
2018-08-09T04:28:39.626Z,18.12
2018-08-09T04:29:40.192Z,18.19
2018-08-09T04:30:40.776Z,18.11
2018-08-09T04:31:41.343Z,18.16
2018-08-09T04:32:41.908Z,18.16
2018-08-09T04:33:42.473Z,18.23
2018-08-09T04:34:43.039Z,18.30
2018-08-09T04:35:43.604Z,18.40
2018-08-09T04:36:44.169Z,18.35
2018-08-09T04:37:44.735Z,18.43
2018-08-09T04:38:45.302Z,18.48
2018-08-09T04:39:45.890Z,18.59
2018-08-09T04:40:46.455Z,18.59
2018-08-09T04:41:47.045Z,18.62
2018-08-09T04:42:47.628Z,18.60
2018-08-09T04:43:48.213Z,18.63
2018-08-09T04:44:48.780Z,18.63
2018-08-09T04:45:49.345Z,18.53
2018-08-09T04:46:49.913Z,18.58
2018-08-09T04:47:50.479Z,18.60
2018-08-09T04:48:51.045Z,18.53
2018-08-09T04:49:51.612Z,18.55
2018-08-09T04:50:52.179Z,18.62
2018-08-09T04:51:52.747Z,18.53
2018-08-09T04:52:53.312Z,18.63
2018-08-09T04:53:53.879Z,18.62
2018-08-09T04:54:54.446Z,18.59
2018-08-09T04:55:55.015Z,18.59
2018-08-09T04:56:55.583Z,18.53
2018-08-09T04:57:56.157Z,18.65
2018-08-09T04:58:56.737Z,18.59
2018-08-09T04:59:57.304Z,18.63
2018-08-09T05:00:57.872Z,18.63
2018-08-09T05:01:58.439Z,18.63
2018-08-09T05:02:59.004Z,18.75
2018-08-09T05:03:59.571Z,18.66
2018-08-09T05:05:00.138Z,18.68
2018-08-09T05:06:00.706Z,18.69
2018-08-09T05:07:01.273Z,18.74
2018-08-09T05:08:01.862Z,18.78
2018-08-09T05:09:02.452Z,18.69
2018-08-09T05:10:02.996Z,18.80
2018-08-09T05:11:03.564Z,18.74
2018-08-09T05:12:04.133Z,18.85
2018-08-09T05:13:04.702Z,18.81
2018-08-09T05:14:05.270Z,18.90
2018-08-09T05:15:05.867Z,18.92
2018-08-09T05:16:06.429Z,18.98
2018-08-09T05:17:06.998Z,18.96
2018-08-09T05:18:07.587Z,18.99
2018-08-09T05:19:08.154Z,19.02
2018-08-09T05:20:08.722Z,19.15
2018-08-09T05:21:09.312Z,19.24
2018-08-09T05:22:09.880Z,19.34
2018-08-09T05:23:10.461Z,19.43
2018-08-09T05:24:11.021Z,19.47
2018-08-09T05:25:11.585Z,19.67
2018-08-09T05:26:12.157Z,19.87
2018-08-09T05:27:12.746Z,20.13
2018-08-09T05:28:13.317Z,20.24
2018-08-09T05:29:13.885Z,20.28
2018-08-09T05:30:14.454Z,20.28
2018-08-09T05:31:15.025Z,20.31
2018-08-09T05:32:15.595Z,20.34
2018-08-09T05:33:16.168Z,20.48
2018-08-09T05:34:16.843Z,20.55
2018-08-09T05:35:17.333Z,20.48
2018-08-09T05:36:17.901Z,20.51
2018-08-09T05:37:18.470Z,20.59
2018-08-09T05:38:19.042Z,20.59
2018-08-09T05:39:19.616Z,20.55
2018-08-09T05:40:20.189Z,20.59
2018-08-09T05:41:20.760Z,20.65
2018-08-09T05:42:21.334Z,20.80
2018-08-09T05:43:21.927Z,20.80
2018-08-09T05:44:22.662Z,20.78
2018-08-09T05:45:23.299Z,20.92
2018-08-09T05:46:23.787Z,20.96
2018-08-09T05:47:24.381Z,20.98
2018-08-09T05:48:24.954Z,20.90
2018-08-09T05:49:25.529Z,20.96
2018-08-09T05:50:26.102Z,20.92
2018-08-09T05:51:26.674Z,20.92
2018-08-09T05:52:27.268Z,20.95
2018-08-09T05:53:27.838Z,21.02
2018-08-09T05:54:28.409Z,20.95
2018-08-09T05:55:28.982Z,20.92
2018-08-09T05:56:29.577Z,20.99
2018-08-09T05:57:30.175Z,20.99
2018-08-09T05:58:30.829Z,20.96
2018-08-09T05:59:31.325Z,20.95
2018-08-09T06:00:31.917Z,20.98
2018-08-09T06:01:32.508Z,21.20
2018-08-09T06:02:33.080Z,21.46
2018-08-09T06:03:33.650Z,21.60
2018-08-09T06:04:34.222Z,21.85
2018-08-09T06:05:34.841Z,21.93
2018-08-09T06:06:35.368Z,21.96
2018-08-09T06:07:35.943Z,22.24
2018-08-09T06:08:36.517Z,22.53
2018-08-09T06:09:37.111Z,22.83
2018-08-09T06:10:37.683Z,22.93
2018-08-09T06:11:38.259Z,23.23
2018-08-09T06:12:38.833Z,23.53
2018-08-09T06:13:39.409Z,24.03
2018-08-09T06:14:39.984Z,24.17
2018-08-09T06:15:40.562Z,24.43
2018-08-09T06:16:41.135Z,24.51
2018-08-09T06:17:41.715Z,24.50
2018-08-09T06:18:42.340Z,24.63
2018-08-09T06:19:42.870Z,24.69
2018-08-09T06:20:43.470Z,24.83
2018-08-09T06:21:44.046Z,25.04
2018-08-09T06:22:44.621Z,25.04
2018-08-09T06:23:45.199Z,24.95
2018-08-09T06:24:45.776Z,25.16
2018-08-09T06:25:46.356Z,25.39
2018-08-09T06:26:46.971Z,25.63
2018-08-09T06:27:47.523Z,25.81
2018-08-09T06:28:48.190Z,26.10
2018-08-09T06:29:48.668Z,26.22
2018-08-09T06:30:49.247Z,26.25
2018-08-09T06:31:49.823Z,25.86
2018-08-09T06:32:50.404Z,25.71
2018-08-09T06:33:51.000Z,25.44
2018-08-09T06:34:51.580Z,25.62
2018-08-09T06:35:52.153Z,25.73
2018-08-09T06:36:52.730Z,25.44
2018-08-09T06:37:53.305Z,25.24
2018-08-09T06:38:53.903Z,25.02
2018-08-09T06:39:54.479Z,25.07
2018-08-09T06:40:55.054Z,25.36
2018-08-09T06:41:55.631Z,25.76
2018-08-09T06:42:56.206Z,25.81
2018-08-09T06:43:56.788Z,25.75
2018-08-09T06:44:57.361Z,25.48
2018-08-09T06:45:57.940Z,25.32
2018-08-09T06:46:58.518Z,25.35
2018-08-09T06:47:59.094Z,25.58
2018-08-09T06:48:59.673Z,25.88
2018-08-09T06:50:00.388Z,26.16
2018-08-09T06:51:00.960Z,26.44
2018-08-09T06:52:01.541Z,26.56
2018-08-09T06:53:02.140Z,26.59
2018-08-09T06:54:02.719Z,26.56
2018-08-09T06:55:03.298Z,26.61
2018-08-09T06:56:03.878Z,26.63
2018-08-09T06:57:04.674Z,26.73
2018-08-09T06:58:05.300Z,26.87
2018-08-09T06:59:05.882Z,27.08
2018-08-09T07:00:06.731Z,27.33
2018-08-09T07:01:07.449Z,27.66
2018-08-09T07:02:08.031Z,28.07
2018-08-09T07:03:08.612Z,28.17
2018-08-09T07:04:09.192Z,28.33
2018-08-09T07:05:10.122Z,28.52
2018-08-09T07:06:10.912Z,28.42
2018-08-09T07:07:11.925Z,28.52
2018-08-09T07:08:13.128Z,28.82
2018-08-09T07:09:14.172Z,28.85
2018-08-09T07:10:14.741Z,29.13
2018-08-09T07:11:15.325Z,29.13
2018-08-09T07:12:15.908Z,28.92
2018-08-09T07:13:16.492Z,28.94
2018-08-09T07:14:17.076Z,28.73
2018-08-09T07:15:17.690Z,28.91
2018-08-09T07:16:18.277Z,29.13
2018-08-09T07:17:18.874Z,28.89
2018-08-09T07:18:19.479Z,28.78
2018-08-09T07:19:20.061Z,28.75
2018-08-09T07:20:20.694Z,28.87
2018-08-09T07:21:21.249Z,28.87
2018-08-09T07:22:21.833Z,28.96
2018-08-09T07:23:22.416Z,29.13
2018-08-09T07:24:22.999Z,29.23
2018-08-09T07:25:23.579Z,29.23
2018-08-09T07:26:24.223Z,29.03
2018-08-09T07:27:24.742Z,29.17
2018-08-09T07:28:25.324Z,29.19
2018-08-09T07:29:25.928Z,29.20
2018-08-09T07:30:26.511Z,29.17
2018-08-09T07:31:27.096Z,29.32
2018-08-09T07:32:27.700Z,29.44
2018-08-09T07:33:28.288Z,29.23
2018-08-09T07:34:28.888Z,29.23
2018-08-09T07:35:29.469Z,29.13
2018-08-09T07:36:30.097Z,28.92
2018-08-09T07:37:30.630Z,28.84
2018-08-09T07:38:31.216Z,28.78
2018-08-09T07:39:31.875Z,28.96
2018-08-09T07:40:32.380Z,29.16
2018-08-09T07:41:32.959Z,29.42
2018-08-09T07:42:33.553Z,29.32
2018-08-09T07:43:34.130Z,29.32
2018-08-09T07:44:34.703Z,29.25
2018-08-09T07:45:35.286Z,28.81
2018-08-09T07:46:35.870Z,28.78
2018-08-09T07:47:36.452Z,28.85
2018-08-09T07:48:37.134Z,28.85
2018-08-09T07:49:37.655Z,28.84
2018-08-09T07:50:38.238Z,28.62
2018-08-09T07:51:38.822Z,28.75
2018-08-09T07:52:39.399Z,29.05
2018-08-09T07:53:39.981Z,28.67
2018-08-09T07:54:40.561Z,28.85
2018-08-09T07:55:41.142Z,29.07
2018-08-09T07:56:41.724Z,29.11
2018-08-09T07:57:42.305Z,29.30
2018-08-09T07:58:42.888Z,29.52
2018-08-09T07:59:43.496Z,29.79
2018-08-09T08:00:44.091Z,30.00
2018-08-09T08:01:44.675Z,30.27
2018-08-09T08:02:45.259Z,30.47
2018-08-09T08:03:45.844Z,30.37
2018-08-09T08:04:46.425Z,29.82
2018-08-09T08:05:47.033Z,29.37
2018-08-09T08:06:47.608Z,29.37
2018-08-09T08:07:48.350Z,29.22
2018-08-09T08:08:48.869Z,28.91
2018-08-09T08:09:49.450Z,28.35
2018-08-09T08:10:50.050Z,27.83
2018-08-09T08:11:50.628Z,27.48
2018-08-09T08:12:51.206Z,27.15
2018-08-09T08:13:51.785Z,26.96
2018-08-09T08:14:52.365Z,26.78
2018-08-09T08:15:52.943Z,26.41
2018-08-09T08:16:53.543Z,26.39
2018-08-09T08:17:54.121Z,26.10
2018-08-09T08:18:54.701Z,25.95
2018-08-09T08:19:55.276Z,25.72
2018-08-09T08:20:55.874Z,25.53
2018-08-09T08:21:56.483Z,25.54
2018-08-09T08:22:57.111Z,25.48
2018-08-09T08:23:57.687Z,25.47
2018-08-09T08:24:58.264Z,25.25
2018-08-09T08:25:58.839Z,25.06
2018-08-09T08:26:59.413Z,24.99
2018-08-09T08:27:59.987Z,24.96
2018-08-09T08:29:00.560Z,24.63
2018-08-09T08:30:01.135Z,24.48
2018-08-09T08:31:01.710Z,24.31
2018-08-09T08:32:02.466Z,24.17
2018-08-09T08:33:03.046Z,24.14
2018-08-09T08:34:03.829Z,24.11
2018-08-09T08:35:04.622Z,24.14
2018-08-09T08:36:05.146Z,24.11
2018-08-09T08:37:05.946Z,24.09
2018-08-09T08:38:06.584Z,24.05
2018-08-09T08:39:07.184Z,24.16
2018-08-09T08:40:07.759Z,24.09
2018-08-09T08:41:08.355Z,24.08
2018-08-09T08:42:09.224Z,24.13
2018-08-09T08:43:10.721Z,24.09
2018-08-09T08:44:12.712Z,24.05
2018-08-09T08:45:14.029Z,24.08
2018-08-09T08:46:15.113Z,24.16
2018-08-09T08:47:16.087Z,24.14
2018-08-09T08:48:16.741Z,24.26
2018-08-09T08:49:17.303Z,24.33
2018-08-09T08:50:18.204Z,24.36
2018-08-09T08:51:18.776Z,24.33
2018-08-09T08:52:19.400Z,24.32
2018-08-09T08:53:20.040Z,24.33
2018-08-09T08:54:20.546Z,24.18
2018-08-09T08:55:21.164Z,24.20
2018-08-09T08:56:21.692Z,24.21
2018-08-09T08:57:22.450Z,24.18
2018-08-09T08:58:23.013Z,24.11
2018-08-09T08:59:23.585Z,24.17
2018-08-09T09:00:24.164Z,24.24
2018-08-09T09:01:24.776Z,24.27
2018-08-09T09:02:25.389Z,24.21
2018-08-09T09:03:26.136Z,24.17
2018-08-09T09:04:26.764Z,24.08
2018-08-09T09:05:27.299Z,24.11
2018-08-09T09:06:27.872Z,24.18
2018-08-09T09:07:28.455Z,24.20
2018-08-09T09:08:29.021Z,24.05
2018-08-09T09:09:29.595Z,24.06
2018-08-09T09:10:30.178Z,24.02
2018-08-09T09:11:30.743Z,23.95
2018-08-09T09:12:31.317Z,24.01
2018-08-09T09:13:31.906Z,23.81
2018-08-09T09:14:32.483Z,23.90
2018-08-09T09:15:33.073Z,23.83
2018-08-09T09:16:33.646Z,23.90
2018-08-09T09:17:34.221Z,24.03
2018-08-09T09:18:34.945Z,24.09
2018-08-09T09:19:35.492Z,24.17
2018-08-09T09:20:36.064Z,24.20
2018-08-09T09:21:36.662Z,24.64
2018-08-09T09:22:37.234Z,24.81
2018-08-09T09:23:37.808Z,24.96
2018-08-09T09:24:38.596Z,25.28
2018-08-09T09:25:39.145Z,25.61
2018-08-09T09:26:39.720Z,25.73
2018-08-09T09:27:40.297Z,25.83
2018-08-09T09:28:40.874Z,25.76
2018-08-09T09:29:41.452Z,25.99
2018-08-09T09:30:42.031Z,26.13
2018-08-09T09:31:42.632Z,26.13
2018-08-09T09:32:43.231Z,26.22
2018-08-09T09:33:43.815Z,26.47
2018-08-09T09:34:44.393Z,26.68
2018-08-09T09:35:44.971Z,26.73
2018-08-09T09:36:45.550Z,26.96
2018-08-09T09:37:46.128Z,27.00
2018-08-09T09:38:46.707Z,27.00
2018-08-09T09:39:47.308Z,26.99
2018-08-09T09:40:47.890Z,27.20
2018-08-09T09:41:48.489Z,27.24
2018-08-09T09:42:49.070Z,27.43
2018-08-09T09:43:49.651Z,27.47
2018-08-09T09:44:50.232Z,27.29
2018-08-09T09:45:50.836Z,27.32
2018-08-09T09:46:51.416Z,27.37
2018-08-09T09:47:51.995Z,27.43
2018-08-09T09:48:52.573Z,27.51
2018-08-09T09:49:53.153Z,27.47
2018-08-09T09:50:53.733Z,27.76
2018-08-09T09:51:54.314Z,27.99
2018-08-09T09:52:54.897Z,28.05
2018-08-09T09:53:55.478Z,28.26
2018-08-09T09:54:56.088Z,28.59
2018-08-09T09:55:56.652Z,28.60
2018-08-09T09:56:57.228Z,28.65
2018-08-09T09:57:57.811Z,28.78
2018-08-09T09:58:58.422Z,28.79
2018-08-09T09:59:59.020Z,28.52
2018-08-09T10:00:59.601Z,28.42
2018-08-09T10:02:00.236Z,28.30
2018-08-09T10:03:00.782Z,28.25
2018-08-09T10:04:01.390Z,28.18
2018-08-09T10:05:01.972Z,28.18
2018-08-09T10:06:02.574Z,28.41
2018-08-09T10:07:03.164Z,28.81
2018-08-09T10:08:03.734Z,28.63
2018-08-09T10:09:04.335Z,28.79
2018-08-09T10:10:04.919Z,28.79
2018-08-09T10:11:05.499Z,28.59
2018-08-09T10:12:06.118Z,28.41
2018-08-09T10:13:06.907Z,28.38
2018-08-09T10:14:07.543Z,28.18
2018-08-09T10:15:08.455Z,28.00
2018-08-09T10:16:09.067Z,27.86
2018-08-09T10:17:09.663Z,27.77
2018-08-09T10:18:10.273Z,27.85
2018-08-09T10:19:10.854Z,27.78
2018-08-09T10:20:11.433Z,27.80
2018-08-09T10:21:12.037Z,27.74
2018-08-09T10:22:12.616Z,27.80
2018-08-09T10:23:13.196Z,27.81
2018-08-09T10:24:13.913Z,27.77
2018-08-09T10:25:14.457Z,27.88
2018-08-09T10:26:15.045Z,28.08
2018-08-09T10:27:15.700Z,28.25
2018-08-09T10:28:16.254Z,28.32
2018-08-09T10:29:16.838Z,28.42
2018-08-09T10:30:17.417Z,28.66
2018-08-09T10:31:17.998Z,28.73
2018-08-09T10:32:18.577Z,28.73
2018-08-09T10:33:19.345Z,28.75
2018-08-09T10:34:19.961Z,28.81
2018-08-09T10:35:20.540Z,28.91
2018-08-09T10:36:21.337Z,28.72
2018-08-09T10:37:21.964Z,28.75
2018-08-09T10:38:22.544Z,29.03
2018-08-09T10:39:23.122Z,29.23
2018-08-09T10:40:23.703Z,29.38
2018-08-09T10:41:24.297Z,29.67
2018-08-09T10:42:24.884Z,29.69
2018-08-09T10:43:25.463Z,29.52
2018-08-09T10:44:26.069Z,29.42
2018-08-09T10:45:26.649Z,29.27
2018-08-09T10:46:27.255Z,29.13
2018-08-09T10:47:27.807Z,29.22
2018-08-09T10:48:28.389Z,29.07
2018-08-09T10:49:28.968Z,29.01
2018-08-09T10:50:29.751Z,29.22
2018-08-09T10:51:30.351Z,29.52
2018-08-09T10:52:30.932Z,29.81
2018-08-09T10:53:31.530Z,29.99
2018-08-09T10:54:32.113Z,30.19
2018-08-09T10:55:32.735Z,30.49
2018-08-09T10:56:33.429Z,30.64
2018-08-09T10:57:33.978Z,30.72
2018-08-09T10:58:34.559Z,30.59
2018-08-09T10:59:35.141Z,30.47
2018-08-09T11:00:35.722Z,30.51
2018-08-09T11:01:36.304Z,30.59
2018-08-09T11:02:36.882Z,30.84
2018-08-09T11:03:37.460Z,31.02
2018-08-09T11:04:38.060Z,31.10
2018-08-09T11:05:38.620Z,30.73
2018-08-09T11:06:39.201Z,30.68
2018-08-09T11:07:39.783Z,30.35
2018-08-09T11:08:40.534Z,30.21
2018-08-09T11:09:41.096Z,30.18
2018-08-09T11:10:41.682Z,30.05
2018-08-09T11:11:42.262Z,30.08
2018-08-09T11:12:42.842Z,30.06
2018-08-09T11:13:43.438Z,29.84
2018-08-09T11:14:44.018Z,29.60
2018-08-09T11:15:44.596Z,29.64
2018-08-09T11:16:45.200Z,29.56
2018-08-09T11:17:45.773Z,29.45
2018-08-09T11:18:46.353Z,29.30
2018-08-09T11:19:46.929Z,29.11
2018-08-09T11:20:47.665Z,29.03
2018-08-09T11:21:48.236Z,28.96
2018-08-09T11:22:48.834Z,28.79
2018-08-09T11:23:49.414Z,28.78
2018-08-09T11:24:49.993Z,28.66
2018-08-09T11:25:50.571Z,28.75
2018-08-09T11:26:51.148Z,28.79
2018-08-09T11:27:51.724Z,28.70
2018-08-09T11:28:52.322Z,28.82
2018-08-09T11:29:52.904Z,28.73
2018-08-09T11:30:53.481Z,28.88
2018-08-09T11:31:54.060Z,28.94
2018-08-09T11:32:54.645Z,28.91
2018-08-09T11:33:55.269Z,28.87
2018-08-09T11:34:55.804Z,28.77
2018-08-09T11:35:56.400Z,28.79
2018-08-09T11:36:57.006Z,28.78
2018-08-09T11:37:57.579Z,28.60
2018-08-09T11:38:58.154Z,28.55
2018-08-09T11:39:58.730Z,28.52
2018-08-09T11:40:59.306Z,28.59
2018-08-09T11:41:59.904Z,28.62
2018-08-09T11:43:00.519Z,28.67
2018-08-09T11:44:01.060Z,28.67
2018-08-09T11:45:01.644Z,28.63
2018-08-09T11:46:02.417Z,28.82
2018-08-09T11:47:03.010Z,28.81
2018-08-09T11:48:03.585Z,28.78
2018-08-09T11:49:04.188Z,28.82
2018-08-09T11:50:04.908Z,28.89
2018-08-09T11:51:05.491Z,28.92
2018-08-09T11:52:06.067Z,28.91
2018-08-09T11:53:06.781Z,28.96
2018-08-09T11:54:07.377Z,28.89
2018-08-09T11:55:07.955Z,28.96
2018-08-09T11:56:08.763Z,29.05
2018-08-09T11:57:09.263Z,29.13
2018-08-09T11:58:09.813Z,29.07
2018-08-09T11:59:10.389Z,29.08
2018-08-09T12:00:10.967Z,29.05
2018-08-09T12:01:11.544Z,29.04
2018-08-09T12:02:12.146Z,29.03
2018-08-09T12:03:12.950Z,29.01
2018-08-09T12:04:13.525Z,29.00
2018-08-09T12:05:14.100Z,28.91
2018-08-09T12:06:14.676Z,28.81
2018-08-09T12:07:15.255Z,28.75
2018-08-09T12:08:15.831Z,28.75
2018-08-09T12:09:16.413Z,28.66
2018-08-09T12:10:16.989Z,28.66
2018-08-09T12:11:17.739Z,28.59
2018-08-09T12:12:18.310Z,28.48
2018-08-09T12:13:18.886Z,28.50
2018-08-09T12:14:19.638Z,28.47
2018-08-09T12:15:20.303Z,28.45
2018-08-09T12:16:20.827Z,28.26
2018-08-09T12:17:21.405Z,28.22
2018-08-09T12:18:22.003Z,28.08
2018-08-09T12:19:22.597Z,27.89
2018-08-09T12:20:23.349Z,27.83
2018-08-09T12:21:23.838Z,27.76
2018-08-09T12:22:24.411Z,27.47
2018-08-09T12:23:25.194Z,27.47
2018-08-09T12:24:25.846Z,27.28
2018-08-09T12:25:26.380Z,27.17
2018-08-09T12:26:27.204Z,27.02
2018-08-09T12:27:27.877Z,27.05
2018-08-09T12:28:28.449Z,26.81
2018-08-09T12:29:29.023Z,26.68
2018-08-09T12:30:29.638Z,26.54
2018-08-09T12:31:30.211Z,26.39
2018-08-09T12:32:30.972Z,26.18
2018-08-09T12:33:31.554Z,26.06
2018-08-09T12:34:32.147Z,25.84
2018-08-09T12:35:32.722Z,25.61
2018-08-09T12:36:33.349Z,25.48
2018-08-09T12:37:34.027Z,25.28
2018-08-09T12:38:34.590Z,25.20
2018-08-09T12:39:35.161Z,25.20
2018-08-09T12:40:35.732Z,24.98
2018-08-09T12:41:36.306Z,25.02
2018-08-09T12:42:36.903Z,24.88
2018-08-09T12:43:37.487Z,24.57
2018-08-09T12:44:38.061Z,24.50
2018-08-09T12:45:38.682Z,24.57
2018-08-09T12:46:39.201Z,24.43
2018-08-09T12:47:39.966Z,24.38
2018-08-09T12:48:40.556Z,24.35
2018-08-09T12:49:41.289Z,24.32
2018-08-09T12:50:41.861Z,24.23
2018-08-09T12:51:42.423Z,24.24
2018-08-09T12:52:43.216Z,24.14
2018-08-09T12:53:43.883Z,24.14
2018-08-09T12:54:44.451Z,24.09
2018-08-09T12:55:45.023Z,24.08
2018-08-09T12:56:45.604Z,24.11
2018-08-09T12:57:46.210Z,24.21
2018-08-09T12:58:46.845Z,24.16
2018-08-09T12:59:47.420Z,24.27